createdAt,value
2023-08-13T00:02:23.119Z,99517.33
2023-08-13T00:04:50.715Z,99517.95
2023-08-13T00:07:18.342Z,99518.38
2023-08-13T00:09:45.931Z,99519.52
2023-08-13T00:12:13.787Z,99526.51
2023-08-13T00:14:41.629Z,99527.30
2023-08-13T00:17:09.505Z,99526.14
2023-08-13T00:19:37.085Z,99532.02
2023-08-13T00:22:08.059Z,99529.98
2023-08-13T00:24:36.082Z,99533.38
2023-08-13T00:27:03.673Z,99532.73
2023-08-13T00:29:32.924Z,99531.89
2023-08-13T00:32:00.614Z,99532.28
2023-08-13T00:34:28.308Z,99529.88
2023-08-13T00:36:55.991Z,99523.56
2023-08-13T00:39:23.740Z,99521.52
2023-08-13T00:41:51.319Z,99518.70
2023-08-13T00:44:18.919Z,99519.63
2023-08-13T00:46:46.778Z,99516.16
2023-08-13T00:49:14.394Z,99518.16
2023-08-13T00:51:41.995Z,99516.98
2023-08-13T00:54:09.620Z,99522.31
2023-08-13T00:56:37.618Z,99523.47
2023-08-13T00:59:05.912Z,99528.19
2023-08-13T01:01:33.670Z,99527.41
2023-08-13T01:04:01.424Z,99528.46
2023-08-13T01:06:29.166Z,99531.73
2023-08-13T01:08:56.793Z,99533.98
2023-08-13T01:11:24.380Z,99528.45
2023-08-13T01:13:51.957Z,99529.59
2023-08-13T01:16:19.579Z,99526.73
2023-08-13T01:18:47.496Z,99530.57
2023-08-13T01:21:15.093Z,99542.15
2023-08-13T01:23:42.680Z,99542.95
2023-08-13T01:26:10.339Z,99542.44
2023-08-13T01:28:37.970Z,99545.62
2023-08-13T01:31:05.687Z,99551.61
2023-08-13T01:33:33.330Z,99552.33
2023-08-13T01:36:00.925Z,99555.14
2023-08-13T01:38:29.840Z,99554.31
2023-08-13T01:40:57.438Z,99556.12
2023-08-13T01:43:25.069Z,99557.73
2023-08-13T01:45:52.777Z,99555.73
2023-08-13T01:48:20.383Z,99554.70
2023-08-13T01:50:47.948Z,99554.47
2023-08-13T01:53:16.037Z,99559.97
2023-08-13T01:55:43.654Z,99563.55
2023-08-13T01:58:11.845Z,99558.36
2023-08-13T02:00:39.421Z,99559.88
2023-08-13T02:03:07.015Z,99561.39
2023-08-13T02:05:34.724Z,99562.11
2023-08-13T02:08:02.354Z,99566.88
2023-08-13T02:10:30.007Z,99568.13
2023-08-13T02:12:57.689Z,99568.67
2023-08-13T02:15:25.284Z,99568.30
2023-08-13T02:17:52.921Z,99563.02
2023-08-13T02:20:20.546Z,99568.50
2023-08-13T02:22:48.273Z,99565.98
2023-08-13T02:25:15.920Z,99574.23
2023-08-13T02:27:43.561Z,99577.08
2023-08-13T02:30:11.158Z,99573.38
2023-08-13T02:32:38.793Z,99572.68
2023-08-13T02:35:06.702Z,99570.40
2023-08-13T02:37:34.353Z,99571.27
2023-08-13T02:40:02.079Z,99573.08
2023-08-13T02:42:29.825Z,99574.21
2023-08-13T02:44:57.422Z,99576.11
2023-08-13T02:47:25.010Z,99582.98
2023-08-13T02:49:52.608Z,99586.55
2023-08-13T02:52:20.270Z,99580.02
2023-08-13T02:54:47.883Z,99580.06
2023-08-13T02:57:15.469Z,99579.91
2023-08-13T02:59:43.063Z,99584.56
2023-08-13T03:02:11.204Z,99583.73
2023-08-13T03:04:38.985Z,99582.83
2023-08-13T03:07:06.570Z,99580.20
2023-08-13T03:09:34.215Z,99581.85
2023-08-13T03:12:01.771Z,99584.38
2023-08-13T03:14:29.395Z,99589.34
2023-08-13T03:16:57.002Z,99582.34
2023-08-13T03:19:24.583Z,99581.13
2023-08-13T03:21:52.184Z,99582.73
2023-08-13T03:24:19.772Z,99589.45
2023-08-13T03:26:47.364Z,99587.92
2023-08-13T03:29:15.022Z,99589.71
2023-08-13T03:31:42.725Z,99587.45
2023-08-13T03:34:10.383Z,99587.82
2023-08-13T03:36:37.950Z,99589.77
2023-08-13T03:39:05.552Z,99589.63
2023-08-13T03:41:33.145Z,99586.13
2023-08-13T03:44:00.785Z,99588.34
2023-08-13T03:46:28.451Z,99586.77
2023-08-13T03:48:56.026Z,99584.00
2023-08-13T03:51:23.676Z,99583.98
2023-08-13T03:53:51.292Z,99576.42
2023-08-13T03:56:18.898Z,99578.02
2023-08-13T03:58:46.770Z,99577.83
2023-08-13T04:01:14.483Z,99578.77
2023-08-13T04:03:42.222Z,99578.76
2023-08-13T04:06:09.936Z,99579.27
2023-08-13T04:08:37.576Z,99580.86
2023-08-13T04:11:05.259Z,99578.93
2023-08-13T04:13:32.857Z,99582.98
2023-08-13T04:16:00.456Z,99580.67
2023-08-13T04:18:28.093Z,99582.91
2023-08-13T04:20:55.681Z,99584.62
2023-08-13T04:23:23.307Z,99580.34
2023-08-13T04:25:50.885Z,99581.39
2023-08-13T04:28:18.524Z,99587.83
2023-08-13T04:30:46.129Z,99591.70
2023-08-13T04:33:13.740Z,99594.34
2023-08-13T04:35:41.357Z,99590.63
2023-08-13T04:38:08.991Z,99592.09
2023-08-13T04:40:36.587Z,99594.30
2023-08-13T04:43:04.183Z,99601.40
2023-08-13T04:45:31.812Z,99602.76
2023-08-13T04:47:59.414Z,99600.69
2023-08-13T04:50:27.042Z,99602.50
2023-08-13T04:52:54.615Z,99600.46
2023-08-13T04:55:22.218Z,99598.55
2023-08-13T04:57:49.788Z,99602.20
2023-08-13T05:00:17.374Z,99603.46
2023-08-13T05:02:45.025Z,99603.60
2023-08-13T05:05:12.635Z,99601.75
2023-08-13T05:07:40.237Z,99604.58
2023-08-13T05:10:07.856Z,99599.30
2023-08-13T05:12:35.462Z,99600.55
2023-08-13T05:15:03.108Z,99599.48
2023-08-13T05:17:30.785Z,99606.33
2023-08-13T05:19:58.417Z,99607.45
2023-08-13T05:22:26.024Z,99606.29
2023-08-13T05:24:53.774Z,99607.83
2023-08-13T05:27:21.379Z,99606.89
2023-08-13T05:29:48.953Z,99606.05
2023-08-13T05:32:18.178Z,99602.03
2023-08-13T05:34:45.794Z,99600.38
2023-08-13T05:37:14.336Z,99604.10
2023-08-13T05:39:41.983Z,99604.98
2023-08-13T05:42:09.573Z,99606.77
2023-08-13T05:44:37.181Z,99606.86
2023-08-13T05:47:04.768Z,99607.29
2023-08-13T05:49:32.360Z,99602.17
2023-08-13T05:52:00.037Z,99601.04
2023-08-13T05:54:27.627Z,99596.93
2023-08-13T05:56:55.576Z,99596.91
2023-08-13T05:59:23.172Z,99595.96
2023-08-13T06:01:50.771Z,99598.06
2023-08-13T06:04:18.397Z,99596.66
2023-08-13T06:06:46.004Z,99597.59
2023-08-13T06:09:13.695Z,99599.56
2023-08-13T06:11:41.362Z,99597.86
2023-08-13T06:14:08.930Z,99601.52
2023-08-13T06:16:36.567Z,99609.81
2023-08-13T06:19:04.224Z,99608.89
2023-08-13T06:21:32.077Z,99606.61
2023-08-13T06:24:00.077Z,99612.38
2023-08-13T06:26:27.685Z,99613.37
2023-08-13T06:28:55.282Z,99613.78
2023-08-13T06:33:56.379Z,99615.86
2023-08-13T06:36:24.006Z,99615.62
2023-08-13T06:38:51.616Z,99611.48
2023-08-13T06:41:19.221Z,99615.28
2023-08-13T06:43:46.825Z,99614.36
2023-08-13T06:46:17.143Z,99617.98
2023-08-13T06:48:45.287Z,99620.69
2023-08-13T06:51:13.285Z,99618.98
2023-08-13T06:53:41.045Z,99617.59
2023-08-13T06:56:08.813Z,99617.57
2023-08-13T06:58:36.542Z,99624.38
2023-08-13T07:01:05.213Z,99625.95
2023-08-13T07:03:34.945Z,99628.05
2023-08-13T07:06:03.730Z,99627.91
2023-08-13T07:08:31.428Z,99628.15
2023-08-13T07:11:00.670Z,99628.64
2023-08-13T07:13:31.691Z,99625.30
2023-08-13T07:15:59.810Z,99625.76
2023-08-13T07:18:34.308Z,99628.46
2023-08-13T07:21:02.752Z,99629.58
2023-08-13T07:23:30.742Z,99628.23
2023-08-13T07:25:58.435Z,99629.40
2023-08-13T07:28:27.722Z,99628.83
2023-08-13T07:30:57.218Z,99623.86
2023-08-13T07:33:25.537Z,99622.12
2023-08-13T07:35:54.336Z,99622.67
2023-08-13T07:38:22.025Z,99620.16
2023-08-13T07:40:49.656Z,99619.45
2023-08-13T07:43:17.382Z,99621.15
2023-08-13T07:45:45.163Z,99617.30
2023-08-13T07:48:12.948Z,99614.70
2023-08-13T07:50:41.487Z,99615.16
2023-08-13T07:53:09.196Z,99619.55
2023-08-13T07:55:37.303Z,99619.50
2023-08-13T07:58:04.894Z,99617.42
2023-08-13T08:00:32.566Z,99617.52
2023-08-13T08:03:01.000Z,99616.48
2023-08-13T08:05:28.766Z,99613.52
2023-08-13T08:07:57.092Z,99611.51
2023-08-13T08:10:25.040Z,99611.34
2023-08-13T08:12:52.637Z,99609.23
2023-08-13T08:15:22.627Z,99609.20
2023-08-13T08:17:50.318Z,99610.48
2023-08-13T08:20:18.020Z,99608.55
2023-08-13T08:22:45.581Z,99612.21
2023-08-13T08:25:13.242Z,99607.02
2023-08-13T08:27:40.925Z,99609.11
2023-08-13T08:30:08.584Z,99612.20
2023-08-13T08:32:36.718Z,99611.16
2023-08-13T08:35:04.894Z,99612.66
2023-08-13T08:37:40.068Z,99613.95
2023-08-13T08:40:07.696Z,99612.60
2023-08-13T08:42:35.271Z,99610.50
2023-08-13T08:45:02.885Z,99607.73
2023-08-13T08:47:30.607Z,99608.27
2023-08-13T08:49:58.267Z,99611.08
2023-08-13T08:52:26.207Z,99607.39
2023-08-13T08:54:54.514Z,99606.27
2023-08-13T08:57:22.216Z,99607.30
2023-08-13T08:59:50.002Z,99600.27
2023-08-13T09:02:18.263Z,99596.51
2023-08-13T09:04:46.226Z,99597.07
2023-08-13T09:07:14.010Z,99600.61
2023-08-13T09:09:44.798Z,99598.09
2023-08-13T09:12:13.051Z,99599.36
2023-08-13T09:14:41.008Z,99592.75
2023-08-13T09:17:08.740Z,99589.28
2023-08-13T09:19:36.395Z,99586.83
2023-08-13T09:22:04.584Z,99584.15
2023-08-13T09:24:32.774Z,99579.13
2023-08-13T09:27:00.358Z,99576.02
2023-08-13T09:29:28.009Z,99575.40
2023-08-13T09:31:55.632Z,99582.30
2023-08-13T09:34:23.330Z,99580.79
2023-08-13T09:36:50.924Z,99580.36
2023-08-13T09:39:18.514Z,99578.48
2023-08-13T09:41:46.263Z,99578.54
2023-08-13T09:44:15.344Z,99575.85
2023-08-13T09:46:43.243Z,99576.66
2023-08-13T09:49:13.407Z,99578.31
2023-08-13T09:51:43.556Z,99580.05
2023-08-13T09:54:15.204Z,99572.77
2023-08-13T09:56:43.344Z,99575.77
2023-08-13T09:59:13.068Z,99572.80
2023-08-13T10:01:50.332Z,99572.02
2023-08-13T10:04:18.316Z,99574.34
2023-08-13T10:06:55.902Z,99568.80
2023-08-13T10:09:24.777Z,99565.27
2023-08-13T10:11:52.491Z,99569.23
2023-08-13T10:14:20.470Z,99570.55
2023-08-13T10:16:48.567Z,99566.69
2023-08-13T10:19:25.632Z,99567.80
2023-08-13T10:21:56.989Z,99566.10
2023-08-13T10:24:25.604Z,99567.84
2023-08-13T10:26:53.318Z,99567.39
2023-08-13T10:29:21.283Z,99566.18
2023-08-13T10:31:53.910Z,99565.75
2023-08-13T10:34:22.109Z,99566.20
2023-08-13T10:36:53.467Z,99564.69
2023-08-13T10:39:22.514Z,99567.19
2023-08-13T10:41:50.689Z,99565.77
2023-08-13T10:44:18.548Z,99559.14
2023-08-13T10:46:46.409Z,99556.27
2023-08-13T10:49:14.913Z,99552.64
2023-08-13T10:51:43.873Z,99553.52
2023-08-13T10:54:11.522Z,99547.89
2023-08-13T10:56:39.121Z,99546.05
2023-08-13T10:59:06.721Z,99552.76
2023-08-13T11:01:34.448Z,99555.84
2023-08-13T11:04:02.200Z,99554.59
2023-08-13T11:06:29.965Z,99553.98
2023-08-13T11:08:57.816Z,99550.21
2023-08-13T11:11:25.595Z,99555.84
2023-08-13T11:13:54.321Z,99556.94
2023-08-13T11:16:22.039Z,99559.77
2023-08-13T11:18:51.728Z,99548.59
2023-08-13T11:21:19.604Z,99551.73
2023-08-13T11:23:47.195Z,99551.39
2023-08-13T11:26:15.932Z,99552.64
2023-08-13T11:28:43.550Z,99549.85
2023-08-13T11:31:11.122Z,99553.20
2023-08-13T11:33:38.960Z,99549.54
2023-08-13T11:36:06.656Z,99549.60
2023-08-13T11:38:34.329Z,99546.30
2023-08-13T11:41:01.980Z,99541.88
2023-08-13T11:43:30.693Z,99545.42
2023-08-13T11:45:58.660Z,99543.94
2023-08-13T11:48:31.074Z,99544.88
2023-08-13T11:51:17.157Z,99541.14
2023-08-13T11:53:47.874Z,99540.36
2023-08-13T11:56:17.372Z,99541.34
2023-08-13T11:58:46.208Z,99539.45
2023-08-13T12:01:14.107Z,99540.52
2023-08-13T12:03:41.877Z,99534.49
2023-08-13T12:06:09.853Z,99537.49
2023-08-13T12:08:37.932Z,99537.09
2023-08-13T12:11:07.062Z,99533.35
2023-08-13T12:13:40.056Z,99530.39
2023-08-13T12:16:08.183Z,99531.52
2023-08-13T12:18:36.625Z,99528.28
2023-08-13T12:21:05.776Z,99522.31
2023-08-13T12:23:35.182Z,99523.04
2023-08-13T12:26:11.491Z,99523.19
2023-08-13T12:28:41.717Z,99524.86
2023-08-13T12:31:10.064Z,99523.38
2023-08-13T12:33:37.870Z,99521.02
2023-08-13T12:36:05.580Z,99519.09
2023-08-13T12:38:37.664Z,99514.52
2023-08-13T12:41:05.975Z,99516.24
2023-08-13T12:43:33.600Z,99519.59
2023-08-13T12:46:01.406Z,99515.41
2023-08-13T12:48:29.009Z,99516.50
2023-08-13T12:50:57.300Z,99513.06
2023-08-13T12:53:25.037Z,99519.54
2023-08-13T12:55:52.647Z,99516.17
2023-08-13T12:58:20.289Z,99515.09
2023-08-13T13:00:47.885Z,99510.33
2023-08-13T13:03:15.454Z,99507.23
2023-08-13T13:05:43.057Z,99508.31
2023-08-13T13:08:11.062Z,99506.18
2023-08-13T13:10:38.685Z,99501.00
2023-08-13T13:13:08.080Z,99500.50
2023-08-13T13:15:36.649Z,99499.31
2023-08-13T13:18:04.398Z,99498.51
2023-08-13T13:20:32.149Z,99496.85
2023-08-13T13:22:59.724Z,99504.98
2023-08-13T13:25:27.431Z,99501.76
2023-08-13T13:27:55.116Z,99496.26
2023-08-13T13:30:23.649Z,99495.41
2023-08-13T13:32:51.250Z,99492.17
2023-08-13T13:35:18.823Z,99491.47
2023-08-13T13:37:46.414Z,99489.32
2023-08-13T13:40:13.979Z,99487.95
2023-08-13T13:42:41.629Z,99491.53
2023-08-13T13:45:09.343Z,99488.74
2023-08-13T13:47:37.019Z,99489.84
2023-08-13T13:50:05.329Z,99489.98
2023-08-13T13:52:33.278Z,99489.19
2023-08-13T13:55:01.111Z,99484.80
2023-08-13T13:57:28.890Z,99484.20
2023-08-13T13:59:56.676Z,99484.08
2023-08-13T14:02:24.445Z,99481.71
2023-08-13T14:04:52.228Z,99478.11
2023-08-13T14:07:19.972Z,99481.69
2023-08-13T14:09:48.899Z,99480.59
2023-08-13T14:12:16.826Z,99477.39
2023-08-13T14:14:45.986Z,99475.34
2023-08-13T14:17:13.664Z,99475.64
2023-08-13T14:19:41.371Z,99475.77
2023-08-13T14:22:09.252Z,99471.34
2023-08-13T14:24:37.087Z,99470.36
2023-08-13T14:27:04.784Z,99468.61
2023-08-13T14:29:32.475Z,99466.29
2023-08-13T14:32:00.206Z,99467.20
2023-08-13T14:34:27.847Z,99470.80
2023-08-13T14:36:55.448Z,99464.59
2023-08-13T14:39:23.050Z,99464.27
2023-08-13T14:41:50.707Z,99463.65
2023-08-13T14:44:18.392Z,99460.61
2023-08-13T14:46:46.596Z,99461.45
2023-08-13T14:49:14.241Z,99457.57
2023-08-13T14:51:43.967Z,99461.42
2023-08-13T14:54:13.369Z,99462.05
2023-08-13T14:56:40.996Z,99460.23
2023-08-13T14:59:08.595Z,99465.64
2023-08-13T15:01:36.239Z,99464.39
2023-08-13T15:04:04.060Z,99461.89
2023-08-13T15:06:31.801Z,99465.23
2023-08-13T15:08:59.381Z,99463.62
2023-08-13T15:11:27.338Z,99464.18
2023-08-13T15:13:54.921Z,99459.21
2023-08-13T15:16:22.752Z,99461.64
2023-08-13T15:18:50.408Z,99464.34
2023-08-13T15:21:18.043Z,99460.48
2023-08-13T15:23:45.661Z,99460.85
2023-08-13T15:26:13.335Z,99459.64
2023-08-13T15:28:40.921Z,99458.45
2023-08-13T15:31:10.943Z,99458.48
2023-08-13T15:33:41.054Z,99455.20
2023-08-13T15:36:08.872Z,99454.37
2023-08-13T15:38:36.645Z,99449.86
2023-08-13T15:41:04.409Z,99449.19
2023-08-13T15:43:32.280Z,99447.83
2023-08-13T15:45:59.867Z,99447.55
2023-08-13T15:48:28.037Z,99444.77
2023-08-13T15:50:56.499Z,99440.23
2023-08-13T15:53:24.202Z,99444.21
2023-08-13T15:55:52.606Z,99440.66
2023-08-13T15:58:25.209Z,99440.95
2023-08-13T16:01:00.622Z,99439.63
2023-08-13T16:03:29.963Z,99440.13
2023-08-13T16:05:57.888Z,99436.23
2023-08-13T16:08:25.645Z,99436.91
2023-08-13T16:10:54.188Z,99436.51
2023-08-13T16:13:24.912Z,99437.24
2023-08-13T16:15:55.762Z,99435.23
2023-08-13T16:18:23.681Z,99436.25
2023-08-13T16:20:52.637Z,99434.80
2023-08-13T16:23:21.999Z,99434.36
2023-08-13T16:25:49.960Z,99434.58
2023-08-13T16:28:19.743Z,99435.17
2023-08-13T16:30:48.254Z,99437.64
2023-08-13T16:33:16.915Z,99436.02
2023-08-13T16:35:45.276Z,99436.52
2023-08-13T16:38:15.630Z,99431.77
2023-08-13T16:40:44.340Z,99432.55
2023-08-13T16:43:14.371Z,99434.42
2023-08-13T16:45:42.071Z,99435.95
2023-08-13T16:48:09.708Z,99439.23
2023-08-13T16:50:37.435Z,99437.06
2023-08-13T16:53:05.069Z,99442.48
2023-08-13T16:55:32.658Z,99446.32
2023-08-13T16:58:00.281Z,99445.89
2023-08-13T17:00:28.386Z,99446.69
2023-08-13T17:02:56.041Z,99446.81
2023-08-13T17:05:23.795Z,99451.59
2023-08-13T17:07:51.796Z,99451.91
2023-08-13T17:10:19.719Z,99451.23
2023-08-13T17:12:48.042Z,99453.70
2023-08-13T17:15:23.962Z,99449.51
2023-08-13T17:17:53.022Z,99457.61
2023-08-13T17:20:22.333Z,99460.70
2023-08-13T17:22:50.419Z,99458.81
2023-08-13T17:25:18.037Z,99462.55
2023-08-13T17:27:45.740Z,99459.35
2023-08-13T17:30:13.328Z,99458.67
2023-08-13T17:32:40.919Z,99466.34
2023-08-13T17:35:08.692Z,99468.96
2023-08-13T17:37:37.047Z,99470.22
2023-08-13T17:40:05.240Z,99471.35
2023-08-13T17:42:33.046Z,99474.65
2023-08-13T17:45:00.654Z,99478.34
2023-08-13T17:47:30.215Z,99478.79
2023-08-13T17:49:58.690Z,99482.69
2023-08-13T17:52:28.735Z,99482.06
2023-08-13T17:54:57.666Z,99484.33
2023-08-13T17:57:25.353Z,99484.81
2023-08-13T17:59:55.869Z,99489.85
2023-08-13T18:02:25.460Z,99494.30
2023-08-13T18:04:55.953Z,99495.14
2023-08-13T18:07:27.529Z,99495.48
2023-08-13T18:09:56.569Z,99499.70
2023-08-13T18:12:24.504Z,99504.23
2023-08-13T18:14:52.179Z,99506.75
2023-08-13T18:17:20.291Z,99510.14
2023-08-13T18:19:48.159Z,99510.52
2023-08-13T18:22:16.373Z,99511.50
2023-08-13T18:24:44.717Z,99518.77
2023-08-13T18:27:12.495Z,99523.52
2023-08-13T18:29:40.788Z,99523.84
2023-08-13T18:32:08.878Z,99526.59
2023-08-13T18:34:36.656Z,99527.55
2023-08-13T18:37:04.426Z,99524.17
2023-08-13T18:39:32.040Z,99528.53
2023-08-13T18:41:59.978Z,99524.23
2023-08-13T18:44:27.744Z,99522.97
2023-08-13T18:46:55.363Z,99527.18
2023-08-13T18:49:22.985Z,99527.98
2023-08-13T18:51:50.795Z,99527.84
2023-08-13T18:54:18.361Z,99533.90
2023-08-13T18:56:45.961Z,99537.72
2023-08-13T18:59:13.546Z,99536.92
2023-08-13T19:01:41.123Z,99541.30
2023-08-13T19:04:09.994Z,99542.45
2023-08-13T19:06:37.685Z,99540.77
2023-08-13T19:09:06.138Z,99544.73
2023-08-13T19:11:33.719Z,99547.97
2023-08-13T19:14:01.306Z,99548.63
2023-08-13T19:16:29.069Z,99552.89
2023-08-13T19:18:56.703Z,99555.48
2023-08-13T19:21:24.322Z,99553.14
2023-08-13T19:23:53.394Z,99551.45
2023-08-13T19:26:23.025Z,99553.39
2023-08-13T19:28:50.616Z,99553.65
2023-08-13T19:31:18.210Z,99552.34
2023-08-13T19:33:45.834Z,99552.51
2023-08-13T19:36:13.468Z,99556.14
2023-08-13T19:38:41.040Z,99555.85
2023-08-13T19:41:08.631Z,99558.26
2023-08-13T19:43:37.101Z,99557.13
2023-08-13T19:46:04.711Z,99556.09
2023-08-13T19:48:33.659Z,99556.08
2023-08-13T19:51:02.418Z,99555.52
2023-08-13T19:53:41.945Z,99556.64
2023-08-13T19:56:10.918Z,99557.05
2023-08-13T19:58:39.983Z,99556.67
2023-08-13T20:01:10.010Z,99555.42
2023-08-13T20:03:52.684Z,99557.23
2023-08-13T20:06:24.815Z,99556.37
2023-08-13T20:08:52.844Z,99556.56
2023-08-13T20:11:20.556Z,99558.40
2023-08-13T20:13:48.280Z,99557.81
2023-08-13T20:16:17.338Z,99555.93
2023-08-13T20:18:47.832Z,99558.55
2023-08-13T20:21:20.610Z,99555.25
2023-08-13T20:23:52.744Z,99554.66
2023-08-13T20:26:22.791Z,99557.48
2023-08-13T20:28:50.927Z,99554.16
2023-08-13T20:31:35.542Z,99553.30
2023-08-13T20:34:05.044Z,99550.33
2023-08-13T20:36:41.321Z,99550.81
2023-08-13T20:39:09.192Z,99550.39
2023-08-13T20:41:37.990Z,99550.11
2023-08-13T20:44:06.213Z,99553.07
2023-08-13T20:46:34.062Z,99552.20
2023-08-13T20:49:01.639Z,99553.02
2023-08-13T20:51:29.233Z,99555.80
2023-08-13T20:53:56.885Z,99554.19
2023-08-13T20:56:24.488Z,99553.79
2023-08-13T20:58:52.094Z,99552.88
2023-08-13T21:01:19.699Z,99557.13
2023-08-13T21:03:47.344Z,99555.36
2023-08-13T21:06:14.932Z,99564.23
2023-08-13T21:08:42.813Z,99564.02
2023-08-13T21:11:10.863Z,99563.75
2023-08-13T21:13:38.464Z,99563.29
2023-08-13T21:16:06.050Z,99561.12
2023-08-13T21:18:33.696Z,99562.70
2023-08-13T21:21:01.302Z,99569.81
2023-08-13T21:23:28.932Z,99572.84
2023-08-13T21:25:56.608Z,99571.73
2023-08-13T21:28:24.221Z,99568.90
2023-08-13T21:30:51.819Z,99564.91
2023-08-13T21:33:19.491Z,99567.06
2023-08-13T21:35:47.107Z,99565.02
2023-08-13T21:38:14.685Z,99567.98
2023-08-13T21:40:42.265Z,99571.14
2023-08-13T21:43:09.918Z,99575.20
2023-08-13T21:45:37.565Z,99570.20
2023-08-13T21:48:05.377Z,99570.39
2023-08-13T21:50:33.258Z,99567.38
2023-08-13T21:53:00.848Z,99569.86
2023-08-13T21:55:28.469Z,99569.55
2023-08-13T21:57:56.118Z,99570.83
2023-08-13T22:00:23.760Z,99575.41
2023-08-13T22:02:51.458Z,99579.31
2023-08-13T22:05:19.180Z,99576.48
2023-08-13T22:07:47.302Z,99580.40
2023-08-13T22:10:14.870Z,99583.99
2023-08-13T22:12:42.524Z,99582.77
2023-08-13T22:15:10.197Z,99584.55
2023-08-13T22:17:37.821Z,99583.52
2023-08-13T22:20:06.534Z,99579.30
2023-08-13T22:22:34.156Z,99580.11
2023-08-13T22:25:01.776Z,99581.94
2023-08-13T22:27:29.387Z,99581.92
2023-08-13T22:29:56.955Z,99580.63
2023-08-13T22:32:24.645Z,99581.41
2023-08-13T22:34:52.361Z,99578.88
2023-08-13T22:37:20.001Z,99581.66
2023-08-13T22:39:47.614Z,99579.59
2023-08-13T22:42:15.619Z,99577.45
2023-08-13T22:44:43.444Z,99573.06
2023-08-13T22:47:11.135Z,99578.52
2023-08-13T22:49:39.394Z,99575.45
2023-08-13T22:52:10.154Z,99571.28
2023-08-13T22:54:37.851Z,99571.40
2023-08-13T22:57:05.476Z,99572.38
2023-08-13T22:59:33.090Z,99575.54
2023-08-13T23:02:01.563Z,99574.05
2023-08-13T23:04:29.265Z,99572.35
2023-08-13T23:06:57.108Z,99576.42
2023-08-13T23:09:24.771Z,99575.08
2023-08-13T23:11:52.384Z,99570.76
2023-08-13T23:14:20.017Z,99570.89
2023-08-13T23:16:47.641Z,99569.02
2023-08-13T23:19:15.228Z,99569.66
2023-08-13T23:21:42.813Z,99566.35
2023-08-13T23:24:11.042Z,99567.06
2023-08-13T23:26:38.630Z,99564.02
2023-08-13T23:29:06.581Z,99562.71
2023-08-13T23:31:34.229Z,99559.21
2023-08-13T23:34:01.899Z,99563.05
2023-08-13T23:36:29.511Z,99556.36
2023-08-13T23:38:57.097Z,99555.92
2023-08-13T23:41:24.823Z,99554.93
2023-08-13T23:43:53.868Z,99550.90
2023-08-13T23:46:21.486Z,99550.12
2023-08-13T23:48:49.066Z,99549.14
2023-08-13T23:51:16.712Z,99547.64
2023-08-13T23:53:44.336Z,99545.66
2023-08-13T23:56:11.961Z,99545.98
2023-08-13T23:58:39.522Z,99546.75
